Date,TemperatureHighF,TemperatureAvgF,TemperatureLowF,DewpointHighF,DewpointAvgF,DewpointLowF,HumidityHigh,HumidityAvg,HumidityLow,PressureMaxIn,PressureMinIn,WindSpeedMaxMPH,WindSpeedAvgMPH,GustSpeedMaxMPH,PrecipitationSumIn
2013-1-1,22,14,8,10,4,2,73,66,57,29.50,29.38,7,0,7,0.00
2013-1-2,34,25,9,23,16,2,77,69,63,29.43,29.27,10,2,10,0.00
2013-1-3,29,24,13,24,16,6,81,70,60,29.58,29.34,12,2,12,0.00
2013-1-4,36,27,11,26,19,4,79,73,66,29.54,29.43,13,2,13,0.00
2013-1-5,38,33,21,33,28,16,85,82,76,29.45,29.20,14,3,14,0.03
2013-1-6,30,24,18,23,16,12,78,72,66,29.55,29.23,10,2,10,0.00
2013-1-7,42,32,20,29,24,14,80,71,61,29.51,29.29,16,5,16,0.00
2013-1-8,45,36,28,33,28,22,79,73,64,29.33,29.23,12,4,12,0.00
2013-1-9,48,38,30,36,30,25,83,71,58,29.69,29.27,11,1,11,0.00
2013-1-10,40,37,30,36,29,24,87,74,60,29.67,29.02,10,2,10,0.63
2013-1-11,52,47,40,48,44,36,90,88,84,29.00,28.85,15,4,15,0.03
2013-1-12,49,30,23,44,23,17,84,74,66,29.26,28.89,8,3,8,0.00
2013-1-13,24,18,12,17,9,4,80,68,60,29.51,29.18,13,2,13,0.00
2013-1-14,30,19,8,16,9,2,77,66,55,29.70,29.50,6,0,6,0.00
2013-1-15,33,23,11,19,13,4,77,65,53,29.64,29.36,8,1,8,0.00
2013-1-16,38,31,16,28,22,9,76,71,61,29.34,29.10,17,3,17,0.03
2013-1-17,36,28,22,30,16,14,79,61,48,29.64,29.33,9,2,9,0.00
2013-1-18,48,39,23,35,29,15,75,66,59,29.62,29.16,19,6,19,0.00
2013-1-19,54,44,31,39,33,19,76,65,52,29.32,29.02,16,5,16,0.00
2013-1-20,22,17,13,10,7,4,71,65,54,29.58,29.40,8,2,8,0.00
2013-1-21,13,8,4,5,-4,-6,72,60,51,29.57,29.46,14,5,14,0.00
2013-1-22,16,11,2,2,-1,-8,68,58,51,29.65,29.54,15,2,15,0.00
2013-1-23,33,24,12,16,10,1,61,56,48,29.64,29.34,15,4,15,0.00
2013-1-24,24,18,6,9,3,-5,62,52,44,29.85,29.46,12,3,12,0.00
2013-1-25,38,29,18,20,15,5,65,56,46,29.48,29.24,15,4,15,0.00
2013-1-26,34,26,10,16,12,2,69,54,46,29.64,29.47,13,3,13,0.00
2013-1-27,41,34,28,37,28,15,87,79,58,29.49,29.05,21,4,21,0.28
2013-1-28,52,45,42,49,42,38,90,88,86,29.18,28.92,17,2,17,0.00
2013-1-29,58,49,36,55,46,33,91,89,88,28.90,28.68,14,3,14,1.03
2013-1-30,36,26,16,33,21,10,89,82,76,29.03,28.54,15,4,15,0.27
2013-1-31,19,11,3,14,3,-5,79,69,61,29.52,29.03,17,5,17,0.00
2013-2-1,21,12,-1,14,3,-9,75,65,57,29.62,29.35,12,3,12,0.00
2013-2-2,27,21,18,20,13,9,81,69,61,29.35,29.23,13,2,13,0.00
2013-2-3,29,25,19,19,15,13,82,67,60,29.36,29.15,12,3,12,0.00
2013-2-4,32,26,19,22,18,12,77,72,67,29.21,28.99,14,4,14,0.00
2013-2-5,39,33,19,30,26,13,81,74,67,29.32,29.05,14,3,14,0.00
2013-2-6,46,37,22,36,30,17,84,74,65,29.41,29.22,16,4,16,0.00
2013-2-7,38,36,32,35,32,28,88,86,80,29.30,29.10,13,2,13,0.59
2013-2-8,32,30,28,28,23,22,84,77,74,29.57,29.32,13,3,13,0.00
2013-2-9,40,33,27,31,27,22,82,76,69,29.56,29.20,18,5,18,0.00
2013-2-10,50,43,34,46,38,30,90,84,69,29.17,28.62,32,9,32,0.52
2013-2-11,35,32,30,28,23,22,74,69,65,29.33,28.84,23,8,23,0.00
2013-2-12,42,34,28,28,24,21,77,69,57,29.36,29.13,9,2,9,0.00
2013-2-13,46,38,26,34,29,20,82,71,61,29.11,28.94,12,2,12,0.00
2013-2-14,42,37,30,31,29,25,82,73,65,29.27,28.92,14,4,14,0.00
2013-2-15,34,27,20,24,14,10,78,59,46,29.48,29.29,10,2,10,0.00
2013-2-16,30,23,14,16,12,5,71,63,56,29.46,29.37,10,2,10,0.00
2013-2-17,42,33,15,25,20,8,73,60,50,29.39,29.05,19,7,19,0.00
2013-2-18,54,42,20,42,34,14,84,73,61,29.03,28.73,19,4,19,0.34
2013-2-19,26,18,10,13,8,0,74,64,56,29.51,29.05,18,4,18,0.00
2013-2-20,26,18,5,13,8,-3,71,63,55,29.64,29.53,9,0,9,0.00
2013-2-21,29,25,14,23,18,7,83,75,68,29.57,29.09,18,3,18,0.00
2013-2-22,39,31,25,31,24,18,84,75,68,29.20,28.98,11,4,11,0.00
2013-2-23,39,30,21,24,20,13,76,64,55,29.20,29.17,8,2,8,0.00
2013-2-24,44,34,15,28,23,10,78,63,53,29.33,29.22,9,1,9,0.05
2013-2-25,46,36,22,32,27,17,80,70,56,29.33,29.09,11,3,11,0.00
2013-2-26,34,33,31,30,28,26,86,82,73,29.06,28.76,21,8,21,0.05
2013-2-27,37,33,30,31,28,26,85,81,74,29.06,28.87,10,1,10,0.05
2013-2-28,38,34,30,30,28,26,85,77,70,29.32,29.08,12,2,12,0.00
2013-3-1,34,28,25,26,20,18,86,71,60,29.48,29.31,17,5,17,0.00
2013-3-2,32,26,16,19,14,8,77,61,52,29.49,29.43,10,2,10,0.00
2013-3-3,40,30,12,22,17,6,77,59,48,29.42,29.26,8,1,8,0.00
2013-3-4,40,34,26,29,25,16,78,71,63,29.28,29.09,20,4,20,0.05
2013-3-5,37,32,29,28,26,23,85,77,68,29.36,29.10,17,2,17,0.05
2013-3-6,34,28,22,23,20,17,79,70,63,29.57,29.39,12,2,12,0.00
2013-3-7,44,33,24,29,23,17,76,66,55,29.63,29.55,10,1,10,0.00
2013-3-8,47,38,25,33,29,19,80,69,58,29.62,29.43,13,4,13,0.00
2013-3-9,43,40,35,39,35,30,86,84,76,29.39,29.00,14,4,14,0.79
2013-3-10,49,45,40,46,42,36,89,89,85,28.97,28.77,10,1,10,1.65
2013-3-11,39,33,29,36,29,22,89,84,76,29.12,28.83,15,4,15,0.11
2013-3-12,38,31,25,30,25,19,83,78,71,29.36,29.13,15,3,15,0.00
2013-3-13,38,30,21,21,18,15,78,61,47,29.59,29.37,12,3,12,0.00
2013-3-14,51,40,24,35,28,16,74,64,53,29.56,29.28,17,4,17,0.00
2013-3-15,51,42,30,39,34,25,83,73,62,29.27,28.93,12,2,12,0.00
2013-3-16,39,36,33,32,30,26,89,78,67,29.35,28.93,9,3,9,0.00
2013-3-17,42,36,27,29,25,19,75,64,56,29.40,29.12,14,4,14,0.00
2013-3-18,37,32,24,32,24,14,83,74,63,29.16,28.92,20,5,20,0.05
2013-3-19,38,29,18,20,15,8,66,55,45,29.39,29.15,17,5,17,0.00
2013-3-20,30,23,15,18,8,5,66,54,45,29.45,29.33,18,4,18,0.00
2013-3-21,39,28,12,18,12,4,70,53,40,29.34,29.22,8,1,8,0.00
2013-3-22,47,36,19,24,20,11,73,53,39,29.30,29.21,7,1,7,0.00
2013-3-23,48,40,28,27,23,18,69,51,39,29.33,29.20,12,4,12,0.00
2013-3-24,35,32,29,29,27,23,86,82,66,29.23,28.96,5,0,5,0.03
2013-3-25,42,35,29,28,25,23,85,66,56,29.38,29.06,12,3,12,0.13
2013-3-26,44,35,26,28,25,20,78,66,51,29.53,29.38,10,2,10,0.00
2013-3-27,51,41,30,32,26,21,73,56,43,29.58,29.51,10,1,10,0.00
2013-3-28,57,45,26,35,30,18,76,56,42,29.59,29.47,9,1,9,0.00
2013-3-29,61,50,33,37,32,26,75,52,38,29.53,29.42,8,1,8,0.00
2013-3-30,57,50,37,45,39,28,77,67,55,29.42,29.12,16,4,16,0.00
2013-3-31,60,50,37,42,35,23,87,58,40,29.21,29.05,13,2,13,0.00
2013-4-1,44,36,27,22,19,16,71,51,39,29.48,29.24,11,1,11,0.00
2013-4-2,48,38,22,24,20,13,72,49,34,29.56,29.48,12,2,12,0.00
2013-4-3,55,43,25,25,21,15,65,42,30,29.66,29.49,10,1,10,0.00
2013-4-4,64,51,32,34,28,16,61,43,31,29.47,29.23,10,1,10,0.00
2013-4-5,62,51,35,34,30,25,67,45,32,29.44,29.24,12,1,12,0.00
2013-4-6,69,61,44,48,42,24,72,49,40,29.22,28.84,22,6,22,0.03
2013-4-7,69,58,38,47,42,32,80,58,44,29.18,28.98,10,1,10,0.00
2013-4-8,77,66,52,58,54,42,86,68,50,29.09,28.75,22,3,22,1.02
2013-4-9,81,66,47,64,56,41,84,71,54,29.10,28.99,20,4,20,0.03
2013-4-10,46,42,40,41,38,36,88,86,81,29.21,28.91,14,4,14,1.39
2013-4-11,49,44,38,44,40,31,89,83,77,28.91,28.82,20,4,20,0.11
2013-4-12,44,40,37,35,33,30,86,76,67,29.15,28.83,15,5,15,0.00
2013-4-13,56,46,34,37,32,25,78,58,47,29.23,29.14,17,3,17,0.00
2013-4-14,77,64,43,54,49,35,78,58,42,29.15,28.76,23,7,23,0.50
2013-4-15,64,53,42,53,44,35,84,72,51,29.25,28.89,13,1,13,0.03
2013-4-16,52,46,36,38,34,29,79,64,55,29.44,29.23,10,2,10,0.03
2013-4-17,57,46,41,54,41,34,90,83,67,29.42,28.88,22,4,22,1.97
2013-4-18,62,52,38,59,48,31,91,86,75,29.00,28.63,20,5,20,1.98
2013-4-19,41,38,35,30,28,26,77,69,61,29.24,28.84,21,7,21,0.00
2013-4-20,54,45,30,33,29,23,78,54,41,29.57,29.28,9,2,9,0.00
2013-4-21,65,55,38,44,39,27,69,55,47,29.62,29.44,23,8,23,0.00
2013-4-22,74,63,46,48,42,35,70,49,36,29.46,29.20,17,4,17,0.03
2013-4-23,53,40,38,46,35,32,83,81,75,29.26,29.19,13,3,13,0.42
2013-4-24,57,47,35,34,31,28,76,56,39,29.35,29.25,17,4,17,0.00
2013-4-25,61,50,37,36,32,28,77,51,37,29.53,29.33,10,3,10,0.00
2013-4-26,71,61,44,50,44,32,65,56,45,29.49,29.42,20,6,20,0.00
2013-4-27,70,61,45,50,47,39,81,60,49,29.48,29.23,16,2,16,0.00
2013-4-28,78,67,50,53,50,44,81,55,41,29.20,29.05,10,1,10,0.00
2013-4-29,84,71,50,63,57,44,81,62,49,29.11,28.90,17,5,17,0.00
2013-4-30,90,79,63,61,57,52,79,50,33,29.12,28.91,20,5,20,0.00
2013-5-1,91,77,58,60,55,45,72,48,33,29.36,29.13,12,2,12,0.00
2013-5-2,57,48,39,45,39,35,85,72,64,29.47,29.34,19,6,19,0.08
2013-5-3,52,42,38,49,39,34,90,87,85,29.36,29.06,13,4,13,2.13
2013-5-4,69,59,52,60,54,49,91,83,67,29.27,29.06,18,1,18,0.17
2013-5-5,76,66,50,57,52,47,89,64,44,29.26,29.17,11,2,11,0.03
2013-5-6,78,68,54,54,51,47,79,55,39,29.28,29.20,12,2,12,0.00
2013-5-7,84,73,54,53,49,44,69,44,33,29.28,29.21,8,0,8,0.00
2013-5-8,87,74,55,56,53,44,68,49,33,29.27,29.19,8,0,8,0.00
2013-5-9,73,65,60,62,58,54,86,79,66,29.20,29.02,16,1,16,1.66
2013-5-10,60,53,50,56,47,45,88,80,76,29.23,29.03,12,2,12,0.03
2013-5-11,62,56,46,49,36,28,88,49,37,29.36,29.16,20,3,20,0.00
2013-5-12,63,55,37,34,31,28,69,42,33,29.44,29.33,14,1,14,0.00
2013-5-13,76,63,40,46,41,29,69,45,31,29.41,29.17,11,1,11,0.00
2013-5-14,96,80,55,66,59,41,70,51,37,29.14,28.89,19,2,19,0.00
2013-5-15,85,77,67,57,53,49,61,44,35,29.11,28.97,8,0,8,0.00
2013-5-16,90,79,61,61,56,48,67,46,32,29.18,29.07,10,1,10,0.00
2013-5-17,86,77,62,64,60,54,75,56,44,29.22,29.13,10,1,10,0.00
2013-5-18,87,79,65,68,64,59,81,61,50,29.24,29.11,12,1,12,0.00
2013-5-19,89,76,67,73,65,58,82,69,57,29.15,28.87,17,4,17,0.27
2013-5-20,86,73,63,65,61,57,82,67,47,29.01,28.80,13,2,13,0.25
2013-5-21,84,74,62,64,60,56,85,63,50,28.94,28.87,15,2,15,0.00
2013-5-22,70,65,59,57,54,52,82,69,58,29.03,28.88,11,2,11,0.00
2013-5-23,71,62,55,54,50,44,88,67,46,29.49,29.03,13,3,13,0.08
2013-5-24,75,63,47,47,43,39,78,49,34,29.66,29.49,10,1,10,0.00
2013-5-25,59,52,49,48,44,40,81,75,53,29.61,29.45,10,1,10,0.66
2013-5-26,66,58,51,58,53,46,88,84,76,29.45,29.23,16,2,16,2.73
2013-5-27,76,65,58,67,60,55,89,84,72,29.24,29.00,12,1,12,0.82
2013-5-28,79,72,64,71,66,59,88,81,75,29.11,28.92,15,2,15,0.63
2013-5-29,88,79,62,73,67,58,87,69,55,29.13,29.00,14,2,14,0.16
2013-5-30,86,74,63,71,65,59,86,74,59,29.05,28.92,20,4,20,0.84
2013-5-31,79,70,62,68,63,57,88,79,68,29.06,28.92,19,2,19,0.12
2013-6-1,80,70,64,65,61,56,87,72,54,29.04,28.90,10,1,10,0.00
2013-6-2,65,61,56,58,50,47,81,66,57,29.27,29.05,12,2,12,0.00
2013-6-3,77,68,53,54,51,46,78,56,42,29.35,29.23,10,1,10,0.00
2013-6-4,77,70,56,56,52,46,70,55,45,29.37,29.22,15,2,15,0.00
2013-6-5,72,67,61,61,58,52,83,73,68,29.27,29.14,6,1,6,0.08
2013-6-6,72,65,58,61,57,53,86,77,66,29.16,29.10,8,1,8,0.27
2013-6-7,75,66,56,56,54,51,83,65,49,29.20,29.13,10,1,10,0.00
2013-6-8,81,74,59,59,56,50,74,54,46,29.20,29.13,8,1,8,0.00
2013-6-9,77,71,64,64,60,53,79,69,59,29.14,28.99,10,2,10,0.00
2013-6-10,81,73,61,64,61,56,85,67,53,29.13,28.99,8,1,8,0.00
2013-6-11,90,80,64,73,67,58,82,67,56,29.17,29.02,9,1,9,0.03
2013-6-12,94,85,73,75,71,63,78,64,52,29.12,28.86,20,2,20,0.00
2013-6-13,86,78,66,63,58,55,81,53,39,29.25,28.96,11,2,11,0.00
2013-6-14,83,76,63,61,58,53,71,56,47,29.36,29.15,9,1,9,0.00
2013-6-15,83,76,67,71,67,59,83,74,65,29.26,29.11,10,1,10,0.31
2013-6-16,87,79,66,70,66,61,86,67,52,29.20,29.14,9,0,9,0.00
2013-6-17,90,82,67,68,64,60,83,56,38,29.20,29.11,6,1,6,0.00
2013-6-18,85,76,64,63,60,56,77,57,46,29.26,29.11,11,2,11,0.00
2013-6-19,89,78,59,64,58,49,70,52,41,29.34,29.26,6,0,6,0.00
2013-6-20,95,85,66,68,64,55,68,51,40,29.34,29.23,15,2,15,0.00
2013-6-21,87,80,74,73,68,63,73,66,58,29.34,29.14,17,3,17,0.00
2013-6-22,97,86,77,77,72,66,80,63,46,29.28,29.14,17,2,17,0.00
2013-6-23,88,80,71,72,67,62,76,64,56,29.24,29.06,11,2,11,0.00
2013-6-24,91,75,69,74,66,62,82,73,53,29.35,29.11,15,2,15,0.32
2013-6-25,92,82,70,76,72,64,86,71,58,29.14,29.02,12,1,12,0.00
2013-6-26,87,79,68,75,71,63,87,76,66,29.03,28.96,10,0,10,1.07
2013-6-27,88,81,71,73,69,65,85,67,55,29.11,29.02,10,0,10,0.00
2013-6-28,86,79,68,65,62,59,77,57,44,29.04,28.93,12,2,12,0.00
2013-6-29,75,69,66,65,62,58,83,77,65,29.05,28.90,9,2,9,0.38
2013-6-30,81,75,62,63,60,53,83,60,51,29.25,29.05,11,3,11,0.00
2013-7-1,82,74,60,58,54,50,71,51,40,29.31,29.24,9,3,9,0.00
2013-7-2,83,75,60,59,56,51,72,53,42,29.33,29.25,11,2,11,0.00
2013-7-3,84,74,60,60,56,51,74,56,43,29.32,29.25,6,0,6,0.00
2013-7-4,90,81,64,65,62,52,74,53,40,29.31,29.23,8,1,8,0.00
2013-7-5,92,83,67,68,64,58,74,54,42,29.30,29.22,13,2,13,0.00
2013-7-6,94,85,68,71,67,60,76,56,43,29.27,29.18,13,2,13,0.00
2013-7-7,94,86,71,73,70,62,75,59,50,29.23,29.16,11,2,11,0.00
2013-7-8,90,82,74,75,72,67,81,70,60,29.23,29.19,12,2,12,0.19
2013-7-9,92,84,77,78,74,70,81,73,62,29.24,29.11,11,1,11,0.03
2013-7-10,86,81,69,73,65,58,83,58,48,29.26,29.10,12,3,12,0.00
2013-7-11,86,78,64,63,60,56,78,55,42,29.35,29.28,8,1,8,0.00
2013-7-12,90,80,64,62,59,54,69,49,38,29.38,29.30,9,1,9,0.00
2013-7-13,88,80,65,65,62,54,68,54,45,29.38,29.29,8,1,8,0.00
2013-7-14,93,86,68,70,67,59,76,54,43,29.41,29.34,9,2,9,0.00
2013-7-15,97,87,73,75,72,66,79,62,48,29.48,29.41,13,1,13,0.00
2013-7-16,97,88,76,77,74,69,80,63,51,29.53,29.47,10,1,10,0.04
2013-7-17,98,90,76,77,74,69,79,61,47,29.56,29.42,6,1,6,0.01
2013-7-18,100,90,77,77,74,70,79,61,46,29.43,29.21,8,1,8,0.01
2013-7-19,98,89,77,76,72,68,78,60,46,29.20,29.04,10,2,10,0.01
2013-7-20,91,84,71,68,66,63,75,54,43,29.18,29.10,7,1,7,0.01
2013-7-21,87,79,70,71,68,62,81,68,57,29.17,29.07,14,2,14,0.04
2013-7-22,93,82,68,75,70,62,85,70,56,29.15,28.98,13,1,13,0.21
2013-7-23,78,74,67,65,62,57,84,67,54,29.20,29.03,8,2,8,0.00
2013-7-24,81,73,60,59,57,53,79,59,46,29.31,29.21,8,1,8,0.00
2013-7-25,87,77,61,65,61,52,73,58,46,29.34,29.26,8,1,8,0.00
2013-7-26,83,72,64,71,62,54,85,73,51,29.29,29.12,19,2,19,0.63
2013-7-27,70,64,58,54,50,48,81,59,48,29.24,29.19,13,2,13,0.00
2013-7-28,75,68,56,55,52,47,74,58,48,29.29,29.16,10,1,10,0.00
2013-7-29,82,72,56,60,56,49,79,58,43,29.39,29.30,8,1,8,0.00
2013-7-30,69,67,65,64,62,56,88,83,63,29.35,29.25,8,1,8,0.66
2013-7-31,82,73,66,68,65,63,89,76,62,29.30,29.22,6,0,6,0.00
2013-8-1,86,78,63,65,63,58,85,62,47,29.30,29.17,7,0,7,0.00
2013-8-2,88,79,69,70,66,61,79,65,51,29.21,29.11,8,2,8,0.00
2013-8-3,83,77,64,62,59,56,78,55,44,29.38,29.21,9,1,9,0.00
2013-8-4,86,78,62,60,58,52,72,51,40,29.43,29.32,6,1,6,0.00
2013-8-5,80,72,64,69,63,54,80,74,62,29.31,29.09,11,1,11,0.00
2013-8-6,90,80,68,75,71,63,87,75,60,29.13,29.05,7,1,7,0.00
2013-8-7,88,81,68,73,69,60,85,67,51,29.20,29.02,12,2,12,0.00
2013-8-8,85,76,63,67,64,58,83,66,52,29.25,29.18,8,1,8,0.00
2013-8-9,84,76,67,68,65,60,81,68,56,29.31,29.23,7,1,7,0.00
2013-8-10,83,76,61,60,58,54,79,55,42,29.41,29.33,9,2,9,0.00
2013-8-11,88,80,64,66,64,55,75,58,48,29.37,29.26,8,2,8,0.00
2013-8-12,85,77,68,69,64,58,78,66,52,29.26,29.15,10,1,10,0.00
2013-8-13,77,70,60,59,54,49,82,58,43,29.39,29.22,11,2,11,0.00
2013-8-14,79,70,55,56,52,46,73,54,40,29.46,29.36,6,1,6,0.00
2013-8-15,82,72,61,58,54,50,68,55,42,29.41,29.33,7,1,7,0.00
2013-8-16,84,73,58,59,56,49,76,56,39,29.42,29.36,8,1,8,0.00
2013-8-17,85,76,59,61,58,52,78,54,41,29.45,29.38,10,1,10,0.00
2013-8-18,87,78,59,64,60,52,76,55,45,29.44,29.33,9,1,9,0.00
2013-8-19,88,79,65,67,64,56,75,61,50,29.36,29.25,7,1,7,0.00
2013-8-20,92,82,68,69,66,60,77,59,46,29.33,29.24,10,2,10,0.00
2013-8-21,93,83,70,72,68,62,77,62,48,29.31,29.21,11,2,11,0.00
2013-8-22,80,76,71,70,67,64,80,72,64,29.36,29.25,8,1,8,0.00
2013-8-23,89,79,65,69,65,60,85,64,49,29.39,29.31,8,1,8,0.00
2013-8-24,92,83,66,73,68,56,73,61,52,29.45,29.36,13,2,13,0.00
2013-8-25,94,84,70,72,68,62,77,59,44,29.47,29.36,13,2,13,0.00
2013-8-26,97,85,70,75,70,61,76,62,48,29.39,29.23,10,1,10,0.00
2013-8-27,98,88,75,74,71,66,79,58,43,29.25,29.12,15,2,15,0.00
2013-8-28,98,88,75,78,72,64,77,61,51,29.24,29.15,15,1,15,0.00
2013-8-29,94,86,75,77,73,67,79,67,57,29.29,29.19,9,2,9,0.00
2013-8-30,101,90,75,78,74,69,84,62,41,29.19,29.01,12,2,12,0.00
2013-8-31,88,82,72,72,69,63,76,65,58,29.06,29.01,8,2,8,0.00
2013-9-1,90,81,68,73,66,58,87,62,47,29.12,29.00,14,1,14,0.00
2013-9-2,81,73,61,62,57,52,81,58,43,29.25,29.11,9,2,9,0.00
2013-9-3,83,70,54,59,54,48,80,59,42,29.34,29.25,6,1,6,0.00
2013-9-4,89,77,58,63,59,50,76,56,42,29.38,29.29,7,0,7,0.00
2013-9-5,93,81,67,68,64,56,70,57,45,29.43,29.36,8,1,8,0.00
2013-9-6,92,80,64,67,62,53,68,55,43,29.41,29.23,10,2,10,0.00
2013-9-7,95,83,67,72,67,58,74,59,48,29.24,29.09,10,2,10,0.00
2013-9-8,90,82,73,72,69,66,78,65,56,29.21,29.09,16,2,16,0.00
2013-9-9,101,88,73,73,70,63,83,57,40,29.14,29.05,20,2,20,0.00
2013-9-10,99,88,74,68,65,61,66,48,34,29.25,29.15,11,2,11,0.00
2013-9-11,89,80,73,70,67,62,82,66,51,29.30,29.23,7,1,7,0.03
2013-9-12,82,74,62,67,54,48,84,53,34,29.35,29.26,12,3,12,0.00
2013-9-13,74,65,54,48,43,38,72,47,31,29.44,29.34,10,2,10,0.00
2013-9-14,79,68,49,50,47,38,69,47,36,29.41,29.23,11,0,11,0.00
2013-9-15,67,62,57,59,54,43,82,75,53,29.42,29.18,7,0,7,0.08
2013-9-16,72,63,53,54,51,46,85,66,49,29.59,29.42,8,0,8,0.00
2013-9-17,71,65,52,59,54,44,78,70,63,29.53,29.29,8,1,8,0.00
2013-9-18,90,78,62,71,65,54,79,67,52,29.29,29.09,13,1,13,0.00
2013-9-19,95,82,70,71,67,62,82,63,42,29.14,28.98,12,2,12,0.34
2013-9-20,71,66,59,63,54,50,87,66,50,29.15,29.06,11,1,11,0.03
2013-9-21,72,63,50,51,48,44,81,59,46,29.20,29.13,8,0,8,0.00
2013-9-22,77,68,51,54,50,44,75,54,41,29.28,29.18,11,1,11,0.00
2013-9-23,77,67,51,55,50,42,73,55,44,29.29,29.18,13,2,13,0.00
2013-9-24,79,68,54,58,52,45,73,58,47,29.20,29.10,11,2,11,0.00
2013-9-25,81,70,54,57,53,48,78,57,42,29.18,29.11,10,1,10,0.00
2013-9-26,86,74,56,63,57,48,77,58,44,29.25,29.17,14,2,14,0.00
2013-9-27,86,74,60,64,56,48,66,54,41,29.32,29.22,16,3,16,0.00
2013-9-28,81,69,57,65,59,51,83,71,54,29.25,29.12,14,2,14,0.13
2013-9-29,75,65,50,54,48,42,84,55,37,29.32,29.21,8,0,8,0.03
2013-9-30,80,69,52,54,51,42,74,54,39,29.21,29.07,11,2,11,0.00
2013-10-1,84,73,59,66,61,52,87,68,53,29.20,29.11,12,2,12,0.00
2013-10-2,86,76,62,67,62,56,82,63,50,29.29,29.16,10,2,10,0.00
2013-10-3,80,72,67,70,65,61,87,78,68,29.15,29.03,9,1,9,0.34
2013-10-4,84,75,66,72,67,61,87,75,65,29.18,29.08,12,1,12,0.00
2013-10-5,74,67,53,69,59,43,87,75,60,29.11,29.04,11,1,11,0.00
2013-10-6,54,49,44,42,40,36,83,70,58,29.06,28.98,9,1,9,0.00
2013-10-7,73,62,46,49,46,41,86,60,38,29.31,29.06,16,1,16,0.03
2013-10-8,80,67,50,53,48,42,74,52,36,29.39,29.30,13,2,13,0.00
2013-10-9,78,66,52,52,47,43,73,52,35,29.42,29.32,9,1,9,0.00
2013-10-10,80,68,52,57,51,42,70,57,44,29.37,29.22,10,1,10,0.00
2013-10-11,79,70,57,60,55,50,80,61,47,29.24,29.08,17,4,17,0.00
2013-10-12,72,64,53,56,45,37,78,50,34,29.44,29.11,12,1,12,0.00
2013-10-13,68,59,44,43,36,32,66,44,31,29.64,29.45,8,1,8,0.00
2013-10-14,67,58,43,45,40,31,68,51,40,29.59,29.25,14,2,14,0.00
2013-10-15,68,60,50,60,49,39,86,69,48,29.20,29.04,14,3,14,0.13
2013-10-16,52,51,49,43,42,40,75,72,68,29.21,29.13,28,2,28,0.00
2013-10-17,65,55,48,45,39,34,81,57,35,29.18,29.06,11,1,11,0.00
2013-10-18,52,48,44,39,36,35,78,65,56,29.24,29.10,8,1,8,0.00
2013-10-19,57,50,38,38,35,30,75,56,44,29.18,29.04,12,2,12,0.00
2013-10-20,65,57,43,46,42,33,73,58,47,29.09,28.94,8,1,13,0.00
2013-10-21,53,45,37,40,28,23,69,51,38,29.25,29.09,15,1,15,0.00
2013-10-22,39,38,36,34,32,24,84,79,60,29.22,29.09,9,2,9,0.24
2013-10-23,45,40,31,34,29,25,81,67,51,29.30,29.22,8,1,8,0.00
2013-10-24,42,38,32,29,24,22,68,57,51,29.58,29.31,11,1,11,0.00
2013-10-25,56,44,29,34,28,21,77,55,36,29.64,29.33,19,2,19,0.00
2013-10-26,55,48,38,36,30,25,64,50,42,29.35,29.16,12,2,12,0.00
2013-10-27,59,48,32,35,31,23,72,52,40,29.32,29.17,10,2,10,0.00
2013-10-28,63,50,36,38,34,25,76,55,37,29.53,29.26,10,3,10,0.00
2013-10-29,58,49,38,45,38,32,82,68,52,29.52,29.31,13,2,13,0.00
2013-10-30,60,56,51,57,53,46,90,89,82,29.30,28.97,12,2,12,1.76
2013-10-31,62,52,44,59,49,40,91,87,85,28.93,28.59,9,1,9,0.24
2013-11-1,50,46,43,43,41,38,88,82,75,29.02,28.74,9,1,9,0.03
2013-11-2,52,45,37,40,34,29,84,68,53,29.38,29.02,10,0,10,0.00
2013-11-3,57,47,34,39,34,28,79,61,48,29.48,29.33,15,3,15,0.00
2013-11-4,57,51,45,43,40,34,71,66,59,29.37,29.25,17,3,17,0.00
2013-11-5,54,53,51,51,48,43,88,84,71,29.43,29.09,17,3,17,0.08
2013-11-6,56,42,32,53,35,26,90,76,64,29.46,29.02,10,1,10,0.25
2013-11-7,47,37,29,34,29,24,82,73,60,29.51,29.46,8,1,8,0.00
2013-11-8,48,43,29,34,32,24,80,64,55,29.53,29.11,23,4,23,0.00
2013-11-9,60,52,42,40,37,32,73,58,47,29.43,29.10,17,3,17,0.00
2013-11-10,51,43,32,34,30,24,75,61,51,29.62,29.43,12,1,12,0.00
2013-11-11,49,38,23,37,29,15,82,69,59,29.80,29.30,20,5,20,0.00
2013-11-12,33,26,17,20,14,10,72,62,50,29.99,29.81,8,1,8,0.00
2013-11-13,44,34,19,23,19,12,74,55,41,29.83,29.36,20,5,20,0.00
2013-11-14,53,44,33,32,26,19,62,51,42,29.34,29.14,18,4,18,0.00
2013-11-15,56,45,35,36,31,22,68,58,46,29.19,29.08,17,4,17,0.00
2013-11-16,60,55,41,54,50,33,85,83,73,29.06,28.73,27,7,27,0.00
2013-11-17,69,53,43,62,46,36,89,77,68,29.11,28.43,17,6,17,0.08
2013-11-18,47,40,30,35,30,23,81,67,54,29.51,29.12,13,2,13,0.00
2013-11-19,49,39,28,32,27,22,79,65,51,29.56,29.40,17,3,17,0.00
2013-11-20,40,38,35,35,31,27,84,77,68,29.41,29.23,16,5,16,0.36
2013-11-21,45,42,39,40,37,35,86,83,79,29.50,29.26,9,2,9,0.00
2013-11-22,38,32,23,34,25,17,86,77,70,29.75,29.52,14,3,14,0.00
2013-11-23,24,20,13,14,9,4,78,63,51,29.97,29.73,14,4,14,0.00
2013-11-24,32,24,10,15,11,2,74,58,46,29.95,29.55,12,3,12,0.00
2013-11-25,36,32,22,26,22,12,72,66,60,29.53,29.31,14,4,14,0.00
2013-11-26,33,27,16,25,15,6,78,63,46,29.49,29.30,15,3,15,0.00
2013-11-27,30,22,12,12,9,3,68,57,47,29.56,29.39,10,2,10,0.00
2013-11-28,37,29,20,21,16,10,69,59,49,29.71,29.32,12,2,12,0.00
2013-11-29,39,30,16,23,18,9,76,62,50,29.80,29.53,13,4,13,0.00
2013-11-30,51,40,28,35,29,20,77,65,54,29.51,29.27,14,3,14,0.00
2013-12-1,48,40,30,33,29,24,81,65,53,29.35,29.16,8,1,8,0.00
2013-12-2,46,40,34,35,32,26,82,74,64,29.14,28.86,14,4,14,0.00
2013-12-3,48,44,37,44,40,32,88,86,82,28.89,28.80,14,3,14,0.00
2013-12-4,52,44,29,49,41,23,90,87,78,29.06,28.71,15,3,15,0.00
2013-12-5,27,20,17,20,11,8,78,66,61,29.54,29.08,14,3,14,0.00
2013-12-6,19,14,11,8,4,2,70,63,53,29.80,29.52,10,2,10,0.00
2013-12-7,20,13,3,5,2,-4,71,60,50,29.95,29.77,10,2,10,0.00
2013-12-8,25,22,14,18,15,4,79,75,63,29.72,29.21,10,1,13,0.00
2013-12-9,22,10,2,16,1,-7,79,67,56,29.49,29.23,13,2,13,0.00
2013-12-10,24,19,1,11,8,-7,71,62,54,29.49,29.25,16,4,16,0.00
2013-12-11,20,11,2,12,0,-9,78,61,50,29.82,29.45,14,2,14,0.00
2013-12-12,29,18,2,17,8,-7,72,65,58,29.76,29.40,16,2,16,0.00
2013-12-13,38,29,16,27,22,9,84,74,64,29.38,29.20,9,1,9,0.00
2013-12-14,30,26,16,24,20,10,85,79,75,29.31,29.17,11,2,11,0.00
2013-12-15,22,18,11,11,8,3,77,67,60,29.36,29.28,9,1,9,0.00
2013-12-16,26,21,15,18,14,8,80,73,66,29.32,29.21,8,1,8,0.00
2013-12-17,38,29,17,28,20,12,82,69,54,29.41,29.27,13,3,13,0.11
2013-12-18,39,32,17,28,22,10,74,66,56,29.39,29.02,20,5,20,0.00
2013-12-19,44,38,32,36,31,27,87,79,71,29.10,28.96,8,1,8,0.00
2013-12-20,34,30,28,30,26,24,89,87,85,29.09,28.94,10,3,11,0.05
2013-12-21,31,29,26,27,25,22,88,85,82,29.09,28.86,11,3,11,0.00
2013-12-22,31,26,17,26,20,11,87,79,74,29.44,28.87,8,1,8,0.00
2013-12-23,16,4,-2,10,-4,-10,77,68,64,29.73,29.45,13,3,13,0.00
2013-12-24,19,10,-7,11,1,-14,74,66,58,29.77,29.50,14,3,14,0.00
2013-12-25,30,27,20,24,21,12,81,78,73,29.45,29.36,11,3,11,0.00
2013-12-26,39,30,16,28,23,11,80,74,65,29.47,29.33,11,2,11,0.16
2013-12-27,41,34,22,31,26,18,83,75,66,29.50,29.34,10,2,10,0.09
2013-12-28,48,41,32,36,32,28,82,71,63,29.32,29.05,12,4,12,0.00
2013-12-29,37,18,3,29,10,-6,82,71,64,29.50,29.04,18,3,18,0.00
2013-12-30,16,10,-1,8,1,-10,72,65,56,29.55,29.39,6,1,6,0.00
2013-12-31,24,16,5,13,7,-2,75,69,60,29.58,29.42,12,2,12,0.00
2014-1-1,16,14,10,10,8,4,79,76,74,29.45,29.38,14,6,14,0.00
2014-1-2,17,10,-1,6,1,-8,73,67,62,29.67,29.41,12,2,12,0.00